Airfield :







YOU CAN JOIN US ON...

 
LOGIN :

Register | Disclaimer

   EN    FR    IT 

 









Legend :    VFR   Marginal VFR   IFR   Intensive IFR   Very Intensive IFR
Visi :
Ceiling :
>= 8 km
>= 3000ft
5 to 8 km
1000 to 3000 ft
1500m to 5 km
500 to 1000 ft
800 to 1500m
200 to 500 ft
< 800m
< 200 ft
Symbols :   Thunderstorms  Fog  Heavy snow  Heavy precipitations  Wind > 20 kt







- Airport Elevation : 160 ft
- IATA code : YYR


CYYR - Goose Bay

CURRENT METAR :
  • 251300Z 08004KT 15SM FEW180 FEW230 BKN260 M03/M08 A3021 RMK AC1CI2CI5 SLP235

EXPIRED METARs :
  • 251200Z 09002KT 15SM FEW230 BKN260 M04/M10 A3023 RMK CI2CI5 SLP239

TAF TAF CYYR
Valid from the 25 at 12:00 until the 26 at 12:00 UTC


251130Z 2512/2612 VRB03KT P6SM BKN260
FM251600 07005KT P6SM FEW010 BKN200
FM260000 10006KT P6SM BKN140
FM260600 VRB03KT P6SM OVC100
FM261000 VRB03KT P6SM -SN OVC030 RMK NXT FCST BY 251800Z
CZQX FIR / North America



MET'MAP, your aeronautical weather chart ! - Copyright ORBIFLY December 2007 - Disclaimer

ORBIFLY MET'MAP TEAM :

Programming & Development : Alexandra Zaïnal
Concept & Development : Baudouin d'Aumeries
Co-Development & Prog : Marc-Olivier Méhu
Technical & hardware support : Manuel Goepfert

Contact : metmap@orbifly.com




SOURCES & CREDITS :

   NOAA